Time;durP1;ratioP1;P1;durP2;ratioP2;P2;SDS_P1;SDS_P2;PMS_P1;PMS_P2;Temp;Humidity;BMP_temperature;BMP_pressure;BME280_temperature;BME280_humidity;BME280_pressure;Samples;Min_cycle;Max_cycle;Signal;HPM_P1;HPM_P2
2023/12/19 00:00:11;;;;;;;1.70;1.60;;;19.00;42.20;;;;;;4992768;28;20618;-69
2023/12/19 00:02:37;;;;;;;2.20;2.00;;;19.00;42.20;;;;;;4985670;28;20470;-69
2023/12/19 00:05:03;;;;;;;1.77;1.67;;;19.00;42.20;;;;;;4987997;28;21036;-69
2023/12/19 00:07:29;;;;;;;1.60;1.50;;;19.00;42.20;;;;;;4995740;28;20918;-69
2023/12/19 00:09:55;;;;;;;1.87;1.77;;;19.00;42.20;;;;;;4972450;28;20235;-69
2023/12/19 00:12:20;;;;;;;1.70;1.60;;;19.00;42.20;;;;;;4985489;28;20465;-69
2023/12/19 00:14:46;;;;;;;1.50;1.40;;;19.00;42.20;;;;;;4992004;28;20223;-69
2023/12/19 00:17:11;;;;;;;2.03;1.93;;;19.00;42.80;;;;;;4991616;28;21046;-69
2023/12/19 00:19:37;;;;;;;1.90;1.80;;;19.00;42.20;;;;;;4990554;28;20250;-69
2023/12/19 00:22:03;;;;;;;1.60;1.50;;;19.00;42.20;;;;;;4996060;28;20317;-69
2023/12/19 00:24:28;;;;;;;1.77;1.67;;;19.00;42.20;;;;;;4987757;28;20231;-69
2023/12/19 00:26:54;;;;;;;1.80;1.70;;;19.00;42.20;;;;;;4988205;28;20223;-69
2023/12/19 00:29:19;;;;;;;2.00;1.90;;;19.00;42.30;;;;;;4984113;28;20257;-69
2023/12/19 00:31:45;;;;;;;5.13;1.83;;;19.00;42.20;;;;;;4990154;28;20968;-68
2023/12/19 00:34:11;;;;;;;1.70;1.60;;;19.00;42.20;;;;;;4992566;28;20235;-68
2023/12/19 00:36:36;;;;;;;1.67;1.57;;;19.00;42.20;;;;;;4993406;28;20219;-69
2023/12/19 00:39:05;;;;;;;1.90;1.80;;;19.00;42.30;;;;;;4989731;28;20652;-69
2023/12/19 00:41:30;;;;;;;1.80;1.70;;;19.00;42.20;;;;;;4998537;28;20341;-69
2023/12/19 00:43:56;;;;;;;2.20;2.10;;;19.00;42.20;;;;;;4985906;28;20431;-69
2023/12/19 00:46:21;;;;;;;1.70;1.60;;;19.00;42.20;;;;;;4990430;28;20260;-68
2023/12/19 00:48:47;;;;;;;1.57;1.47;;;19.00;42.20;;;;;;4997781;28;20215;-69
2023/12/19 00:51:13;;;;;;;1.70;1.60;;;19.00;42.30;;;;;;4994941;28;20697;-70
2023/12/19 00:53:39;;;;;;;2.00;1.90;;;19.00;42.20;;;;;;4998273;28;20435;-69
2023/12/19 00:56:07;;;;;;;1.57;1.47;;;19.00;42.20;;;;;;4992544;28;20273;-69
2023/12/19 00:58:33;;;;;;;1.50;1.40;;;19.00;42.20;;;;;;4991776;28;20238;-69
2023/12/19 01:00:58;;;;;;;1.60;1.50;;;19.00;42.20;;;;;;4996440;28;20510;-69
2023/12/19 01:03:24;;;;;;;1.90;1.80;;;19.00;42.20;;;;;;4993012;28;20254;-68
2023/12/19 01:05:49;;;;;;;1.60;1.50;;;19.00;42.20;;;;;;4994523;28;20338;-68
2023/12/19 01:08:15;;;;;;;1.70;1.60;;;19.00;42.30;;;;;;4992711;28;20219;-68
2023/12/19 01:10:41;;;;;;;2.10;1.90;;;19.00;42.30;;;;;;4988864;28;20304;-69
2023/12/19 01:13:06;;;;;;;1.97;1.43;;;19.00;42.30;;;;;;4997481;28;20250;-69
2023/12/19 01:15:32;;;;;;;1.60;1.50;;;19.00;42.30;;;;;;4993325;28;20262;-69
2023/12/19 01:17:57;;;;;;;1.50;1.40;;;19.00;42.30;;;;;;4993922;28;20599;-68
2023/12/19 01:20:23;;;;;;;1.70;1.60;;;19.00;42.30;;;;;;4991360;28;21138;-69
2023/12/19 01:22:48;;;;;;;1.80;1.70;;;19.00;42.20;;;;;;4986772;28;20701;-69
2023/12/19 01:25:14;;;;;;;1.60;1.50;;;19.00;42.30;;;;;;4993072;28;20580;-69
2023/12/19 01:27:40;;;;;;;1.53;1.43;;;19.00;42.30;;;;;;5000044;28;20272;-69
2023/12/19 01:30:06;;;;;;;1.83;1.73;;;19.00;42.30;;;;;;4984184;28;20262;-69
2023/12/19 01:32:32;;;;;;;1.70;1.60;;;19.00;43.10;;;;;;4996264;28;20230;-69
2023/12/19 01:34:57;;;;;;;1.50;1.40;;;19.00;42.30;;;;;;4993225;28;20436;-69
2023/12/19 01:37:23;;;;;;;2.97;1.77;;;19.00;42.30;;;;;;4987947;28;20250;-69
2023/12/19 01:39:48;;;;;;;1.50;1.40;;;19.00;42.30;;;;;;4994765;28;20232;-69
2023/12/19 01:42:14;;;;;;;1.57;1.47;;;19.00;42.30;;;;;;4991183;28;20215;-68
2023/12/19 01:44:39;;;;;;;1.50;1.40;;;19.00;42.30;;;;;;4991467;28;20227;-69
2023/12/19 01:47:05;;;;;;;1.60;1.50;;;19.00;42.30;;;;;;4985833;28;20215;-69
2023/12/19 01:49:31;;;;;;;1.40;1.30;;;19.00;42.30;;;;;;4985398;28;20242;-68
2023/12/19 01:51:57;;;;;;;1.27;1.17;;;19.00;42.30;;;;;;5001693;28;20225;-69
2023/12/19 01:54:23;;;;;;;2.03;1.93;;;19.00;42.30;;;;;;4992299;28;20314;-69
2023/12/19 01:56:48;;;;;;;1.60;1.50;;;19.00;42.30;;;;;;4997787;28;20474;-69
2023/12/19 01:59:15;;;;;;;1.30;1.20;;;19.00;42.30;;;;;;4995254;28;20243;-69
2023/12/19 02:01:41;;;;;;;1.40;1.30;;;19.00;42.30;;;;;;4986372;28;21766;-69
2023/12/19 02:04:09;;;;;;;1.57;1.47;;;19.00;42.30;;;;;;4987936;28;20472;-69
2023/12/19 02:06:35;;;;;;;1.70;1.60;;;19.00;42.40;;;;;;4981512;28;20475;-69
2023/12/19 02:09:01;;;;;;;1.83;1.73;;;19.00;42.30;;;;;;4994972;28;20558;-69
2023/12/19 02:11:31;;;;;;;1.60;1.50;;;19.00;42.30;;;;;;4998328;28;20228;-69
2023/12/19 02:13:58;;;;;;;1.30;1.20;;;19.00;42.30;;;;;;4998040;28;20525;-69
2023/12/19 02:16:26;;;;;;;1.50;1.40;;;19.00;42.40;;;;;;4989580;23;20461;-75
2023/12/19 02:19:04;;;;;;;1.50;1.40;;;19.00;42.30;;;;;;4975997;28;20451;-79
2023/12/19 02:21:30;;;;;;;1.87;1.77;;;19.00;42.30;;;;;;4986901;28;20473;-78
2023/12/19 02:23:56;;;;;;;1.40;1.30;;;19.00;42.40;;;;;;4981744;28;20474;-79
2023/12/19 02:26:22;;;;;;;1.70;1.40;;;19.00;42.40;;;;;;4988379;28;20421;-79
2023/12/19 02:28:52;;;;;;;1.50;1.40;;;19.00;42.30;;;;;;4969845;28;20228;-79
2023/12/19 02:31:20;;;;;;;1.50;1.40;;;19.00;42.40;;;;;;4996193;28;21044;-79
2023/12/19 02:33:46;;;;;;;1.77;1.67;;;19.00;42.40;;;;;;4974454;28;20478;-79
2023/12/19 02:36:12;;;;;;;1.40;1.30;;;19.00;42.40;;;;;;4975586;28;20429;-77
2023/12/19 02:38:37;;;;;;;1.37;1.27;;;19.00;42.50;;;;;;4981345;28;20861;-79
2023/12/19 02:41:04;;;;;;;1.83;1.73;;;19.00;42.40;;;;;;4986355;28;20258;-79
2023/12/19 02:43:29;;;;;;;1.93;1.30;;;19.00;42.50;;;;;;4971506;28;20763;-79
2023/12/19 02:45:55;;;;;;;1.50;1.40;;;19.00;42.40;;;;;;4991318;28;20432;-78
2023/12/19 02:48:20;;;;;;;1.60;1.50;;;19.00;42.50;;;;;;4981902;28;20330;-79
2023/12/19 02:50:46;;;;;;;1.40;1.30;;;19.00;42.50;;;;;;4983767;28;20270;-77
2023/12/19 02:53:11;;;;;;;1.37;1.27;;;19.00;42.40;;;;;;4988699;28;20353;-77
2023/12/19 02:55:37;;;;;;;1.67;1.57;;;19.00;42.50;;;;;;4972049;28;20215;-79
2023/12/19 02:58:03;;;;;;;1.83;1.53;;;19.00;42.40;;;;;;4987499;28;20674;-80
2023/12/19 03:00:28;;;;;;;1.57;1.47;;;19.00;42.50;;;;;;4982143;28;20239;-79
2023/12/19 03:02:58;;;;;;;1.33;1.23;;;19.00;42.50;;;;;;4982103;28;20248;-78
2023/12/19 03:05:24;;;;;;;1.37;1.27;;;19.00;42.40;;;;;;4973582;28;20315;-79
2023/12/19 03:07:50;;;;;;;1.63;1.53;;;19.00;42.50;;;;;;4974466;28;20445;-77
2023/12/19 03:10:15;;;;;;;1.27;1.17;;;19.00;42.40;;;;;;4979923;28;20220;-77
2023/12/19 03:12:41;;;;;;;1.50;1.40;;;19.00;42.40;;;;;;4984014;28;20228;-79
2023/12/19 03:15:07;;;;;;;2.70;1.77;;;19.00;42.50;;;;;;4975253;28;20354;-79
2023/12/19 03:17:32;;;;;;;1.40;1.30;;;19.00;42.40;;;;;;4960497;28;20584;-74
2023/12/19 03:19:58;;;;;;;1.40;1.30;;;19.00;42.40;;;;;;4980335;28;20499;-76
2023/12/19 03:22:23;;;;;;;1.30;1.20;;;19.00;42.40;;;;;;4992221;28;20238;-75
2023/12/19 03:24:49;;;;;;;1.50;1.40;;;19.00;42.40;;;;;;4989653;28;20295;-75
2023/12/19 03:27:14;;;;;;;1.50;1.40;;;19.00;42.40;;;;;;4981297;28;20881;-75
2023/12/19 03:29:40;;;;;;;1.37;1.27;;;19.00;42.50;;;;;;4970786;28;20223;-74
2023/12/19 03:32:07;;;;;;;1.60;1.50;;;19.00;42.50;;;;;;4967386;28;20224;-76
2023/12/19 03:34:33;;;;;;;1.43;1.33;;;19.00;42.50;;;;;;4985378;28;20223;-74
2023/12/19 03:36:58;;;;;;;1.93;1.83;;;19.00;42.50;;;;;;4989290;28;20800;-75
2023/12/19 03:39:24;;;;;;;1.50;1.40;;;19.00;42.40;;;;;;4987943;28;20231;-75
2023/12/19 03:41:50;;;;;;;1.53;1.43;;;19.00;42.50;;;;;;4981917;28;20948;-76
2023/12/19 03:44:16;;;;;;;1.37;1.27;;;19.00;42.50;;;;;;4960610;28;20220;-75
2023/12/19 03:46:41;;;;;;;1.30;1.20;;;19.00;42.50;;;;;;4985652;28;20672;-74
2023/12/19 03:49:07;;;;;;;1.70;1.60;;;19.00;42.50;;;;;;4976912;28;20548;-75
2023/12/19 03:51:33;;;;;;;1.50;1.40;;;19.00;42.50;;;;;;4981630;28;20351;-74
2023/12/19 03:53:58;;;;;;;1.60;1.50;;;19.00;42.50;;;;;;4993033;28;20234;-76
2023/12/19 03:56:24;;;;;;;1.70;1.50;;;19.00;42.60;;;;;;4976186;28;20603;-75
2023/12/19 03:58:50;;;;;;;1.30;1.20;;;19.00;42.50;;;;;;4968861;28;20310;-75
2023/12/19 04:01:18;;;;;;;1.50;1.40;;;19.00;42.50;;;;;;4970799;28;20236;-74
2023/12/19 04:03:44;;;;;;;1.50;1.40;;;19.00;42.50;;;;;;4978979;28;20645;-76
2023/12/19 04:06:09;;;;;;;1.33;1.23;;;19.00;42.50;;;;;;4981036;28;20572;-76
2023/12/19 04:08:35;;;;;;;1.43;1.33;;;19.00;42.50;;;;;;4984074;28;20219;-74
2023/12/19 04:11:01;;;;;;;1.40;1.30;;;19.00;42.50;;;;;;4972189;28;20227;-74
2023/12/19 04:13:26;;;;;;;1.27;1.17;;;19.00;42.50;;;;;;4985688;28;20236;-75
2023/12/19 04:15:52;;;;;;;1.37;1.27;;;19.00;42.50;;;;;;4987139;28;20246;-76
2023/12/19 04:18:18;;;;;;;1.77;1.60;;;19.00;42.60;;;;;;4986082;28;20674;-76
2023/12/19 04:20:43;;;;;;;1.20;1.10;;;19.00;42.50;;;;;;4987064;28;20773;-76
2023/12/19 04:23:09;;;;;;;1.30;1.20;;;18.90;42.50;;;;;;4988829;28;20297;-75
2023/12/19 04:25:35;;;;;;;1.23;1.13;;;19.00;42.50;;;;;;4974265;28;20220;-75
2023/12/19 04:28:01;;;;;;;1.40;1.30;;;19.00;42.50;;;;;;4987059;28;21648;-76
2023/12/19 04:30:26;;;;;;;1.30;1.20;;;19.00;42.50;;;;;;4984071;28;20704;-74
2023/12/19 04:32:52;;;;;;;1.43;1.33;;;18.90;42.40;;;;;;4986787;28;20339;-77
2023/12/19 04:35:18;;;;;;;1.30;1.20;;;18.90;42.40;;;;;;4978861;28;20362;-76
2023/12/19 04:37:43;;;;;;;1.50;1.40;;;19.00;42.60;;;;;;4978748;28;20219;-76
2023/12/19 04:40:09;;;;;;;1.53;1.20;;;18.90;42.50;;;;;;4976981;28;20259;-76
2023/12/19 04:42:35;;;;;;;1.47;1.37;;;19.00;42.60;;;;;;4985999;28;20219;-75
2023/12/19 04:45:01;;;;;;;1.10;1.00;;;19.00;42.60;;;;;;4968781;28;20479;-76
2023/12/19 04:47:26;;;;;;;1.40;1.30;;;19.00;43.20;;;;;;4982098;28;20232;-75
2023/12/19 04:49:52;;;;;;;1.20;1.10;;;19.00;42.50;;;;;;4973948;28;20230;-75
2023/12/19 04:52:17;;;;;;;1.20;1.10;;;19.00;42.50;;;;;;4984727;28;20223;-75
2023/12/19 04:54:45;;;;;;;1.37;1.27;;;19.00;42.50;;;;;;4980495;28;20229;-75
2023/12/19 04:57:10;;;;;;;1.23;1.13;;;19.00;42.50;;;;;;4981873;28;21147;-75
2023/12/19 04:59:36;;;;;;;1.10;1.00;;;19.00;42.40;;;;;;4979195;28;20467;-74
2023/12/19 05:02:02;;;;;;;1.30;1.20;;;19.00;42.40;;;;;;4967480;28;20219;-75
2023/12/19 05:04:27;;;;;;;1.30;1.20;;;19.00;42.40;;;;;;4979490;28;20211;-75
2023/12/19 05:06:53;;;;;;;1.97;1.20;;;19.00;42.40;;;;;;4958444;28;20223;-76
2023/12/19 05:09:20;;;;;;;1.27;1.13;;;19.00;42.40;;;;;;4988667;28;20255;-75
2023/12/19 05:11:45;;;;;;;1.50;1.40;;;19.00;42.40;;;;;;4976444;28;20227;-76
2023/12/19 05:14:11;;;;;;;1.30;1.20;;;19.00;42.30;;;;;;4974020;28;20790;-76
2023/12/19 05:16:37;;;;;;;2.17;1.20;;;19.00;42.30;;;;;;4973030;28;20298;-75
2023/12/19 05:19:04;;;;;;;1.37;1.27;;;19.00;42.20;;;;;;4969109;28;20224;-75
2023/12/19 05:21:35;;;;;;;1.30;1.20;;;19.10;42.30;;;;;;4976298;28;20628;-76
2023/12/19 05:24:01;;;;;;;1.10;1.00;;;19.10;42.20;;;;;;4967114;28;20461;-75
2023/12/19 05:26:26;;;;;;;1.30;1.20;;;19.10;42.20;;;;;;4972157;28;20473;-75
2023/12/19 05:28:54;;;;;;;1.30;1.20;;;19.10;42.20;;;;;;4975361;28;20219;-77
2023/12/19 05:31:20;;;;;;;1.47;1.23;;;19.10;42.20;;;;;;4986877;28;20285;-77
2023/12/19 05:33:46;;;;;;;1.30;1.20;;;19.10;42.20;;;;;;4989363;28;22372;-78
2023/12/19 05:36:12;;;;;;;1.37;1.27;;;19.10;42.10;;;;;;4969020;28;20217;-75
2023/12/19 05:38:38;;;;;;;1.20;1.10;;;19.10;42.10;;;;;;4983282;28;20227;-77
2023/12/19 05:41:04;;;;;;;1.10;1.00;;;19.10;42.10;;;;;;4980226;28;20469;-76
2023/12/19 05:43:29;;;;;;;1.30;1.20;;;19.10;42.20;;;;;;5011554;28;20231;-77
2023/12/19 05:45:55;;;;;;;1.07;0.97;;;19.10;42.90;;;;;;4993843;28;20852;-76
2023/12/19 05:48:21;;;;;;;1.23;1.13;;;19.10;42.20;;;;;;4975717;28;21009;-77
2023/12/19 05:50:47;;;;;;;1.23;1.13;;;19.10;42.20;;;;;;4976945;28;20234;-77
2023/12/19 05:53:13;;;;;;;1.20;1.10;;;19.10;42.20;;;;;;4973204;28;20949;-77
2023/12/19 05:55:38;;;;;;;1.37;1.27;;;19.10;42.20;;;;;;4977670;28;20255;-77
2023/12/19 05:58:04;;;;;;;1.10;1.00;;;19.10;42.20;;;;;;4990481;28;20255;-77
2023/12/19 06:00:29;;;;;;;1.20;1.10;;;19.10;42.30;;;;;;4993813;28;20334;-77
2023/12/19 06:02:55;;;;;;;1.23;1.13;;;19.10;42.20;;;;;;4993224;28;20250;-77
2023/12/19 06:05:20;;;;;;;1.10;1.00;;;19.10;42.20;;;;;;4966285;28;20585;-77
2023/12/19 06:07:46;;;;;;;1.20;1.10;;;19.10;42.20;;;;;;4986937;28;21089;-77
2023/12/19 06:10:13;;;;;;;1.20;0.90;;;19.10;42.20;;;;;;4989229;28;20219;-76
2023/12/19 06:12:39;;;;;;;1.07;1.03;;;19.10;42.20;;;;;;4970837;28;20277;-77
2023/12/19 06:15:08;;;;;;;1.27;1.17;;;19.10;42.20;;;;;;4976466;28;21598;-75
2023/12/19 06:17:40;;;;;;;1.40;1.00;;;19.10;42.20;;;;;;4972703;28;20440;-77
2023/12/19 06:20:07;;;;;;;1.20;1.10;;;19.10;42.20;;;;;;4989865;28;20480;-77
2023/12/19 06:22:33;;;;;;;1.40;1.30;;;19.10;42.30;;;;;;4978669;28;20540;-76
2023/12/19 06:24:58;;;;;;;1.80;1.70;;;19.10;42.20;;;;;;4994838;28;20536;-77
2023/12/19 06:27:27;;;;;;;2.97;1.93;;;19.10;42.20;;;;;;4985647;28;20619;-75
2023/12/19 06:29:52;;;;;;;2.10;2.00;;;19.10;42.20;;;;;;4984211;28;20227;-76
2023/12/19 06:32:18;;;;;;;5.93;1.90;;;19.10;42.20;;;;;;4989642;28;20467;-77
2023/12/19 06:34:43;;;;;;;2.60;2.07;;;19.10;42.20;;;;;;4986220;28;20228;-73
2023/12/19 06:37:09;;;;;;;2.50;2.00;;;19.10;42.20;;;;;;4976619;28;20216;-72
2023/12/19 06:39:36;;;;;;;5.20;2.30;;;19.10;42.20;;;;;;4983177;28;20227;-71
2023/12/19 06:42:01;;;;;;;2.60;2.20;;;19.10;42.20;;;;;;4988520;28;20256;-75
2023/12/19 06:44:27;;;;;;;2.30;2.10;;;19.20;42.30;;;;;;4981068;28;21008;-77
2023/12/19 06:46:53;;;;;;;2.50;2.30;;;19.10;42.30;;;;;;4976176;28;20243;-78
2023/12/19 06:49:19;;;;;;;2.93;2.10;;;19.10;42.30;;;;;;4972226;28;20266;-80
2023/12/19 06:51:44;;;;;;;3.20;2.07;;;19.10;42.20;;;;;;4978998;28;20306;-78
2023/12/19 06:54:10;;;;;;;3.43;2.73;;;19.10;42.30;;;;;;4990186;28;20456;-78
2023/12/19 06:56:36;;;;;;;6.13;2.70;;;19.10;42.20;;;;;;4989524;28;20826;-74
2023/12/19 06:59:01;;;;;;;3.03;2.83;;;19.10;42.30;;;;;;4978597;28;20687;-77
2023/12/19 07:01:27;;;;;;;3.80;2.90;;;19.10;42.20;;;;;;4977842;28;20228;-76
2023/12/19 07:03:53;;;;;;;3.30;3.00;;;19.10;42.20;;;;;;4993063;28;20255;-76
2023/12/19 07:06:19;;;;;;;3.97;3.63;;;19.10;42.20;;;;;;4990802;28;20569;-77
2023/12/19 07:08:45;;;;;;;3.20;2.70;;;19.10;42.30;;;;;;4971748;28;20472;-77
2023/12/19 07:11:10;;;;;;;4.20;3.10;;;19.10;42.30;;;;;;4986938;28;20332;-77
2023/12/19 07:13:36;;;;;;;3.77;3.33;;;19.10;42.30;;;;;;4987546;28;21221;-74
2023/12/19 07:16:03;;;;;;;5.13;3.50;;;19.10;42.30;;;;;;4981104;28;20921;-75
2023/12/19 07:18:29;;;;;;;3.87;3.00;;;19.10;42.30;;;;;;4978476;28;20280;-76
2023/12/19 07:20:54;;;;;;;3.13;2.87;;;19.10;42.40;;;;;;4997374;28;20923;-77
2023/12/19 07:23:20;;;;;;;3.00;2.80;;;19.10;42.30;;;;;;4973938;28;20412;-77
2023/12/19 07:25:45;;;;;;;3.13;2.73;;;19.10;43.10;;;;;;4975220;28;20223;-77
2023/12/19 07:28:12;;;;;;;3.27;2.50;;;19.10;42.30;;;;;;4989471;28;20223;-77
2023/12/19 07:30:37;;;;;;;3.63;3.33;;;19.10;42.30;;;;;;4984162;28;20224;-76
2023/12/19 07:33:04;;;;;;;5.20;3.47;;;19.10;42.30;;;;;;4960809;28;20472;-76
2023/12/19 07:35:30;;;;;;;6.33;3.10;;;19.10;42.30;;;;;;4994523;28;20691;-77
2023/12/19 07:37:55;;;;;;;3.17;2.97;;;19.10;42.40;;;;;;4980310;28;20438;-77
2023/12/19 07:40:21;;;;;;;4.07;2.70;;;19.10;42.40;;;;;;4979262;28;22111;-77
2023/12/19 07:42:46;;;;;;;3.23;3.03;;;19.10;42.40;;;;;;4975940;28;20228;-77
2023/12/19 07:45:13;;;;;;;3.53;3.27;;;19.10;42.40;;;;;;4981328;28;20236;-76
2023/12/19 07:47:38;;;;;;;3.50;3.00;;;19.10;42.40;;;;;;4982825;28;20564;-77
2023/12/19 07:50:05;;;;;;;5.80;3.00;;;19.10;42.40;;;;;;4988692;28;20469;-76
2023/12/19 07:52:31;;;;;;;3.97;3.67;;;19.10;42.40;;;;;;4978073;28;20243;-78
2023/12/19 07:54:56;;;;;;;6.00;3.43;;;19.10;42.40;;;;;;4977472;28;20484;-77
2023/12/19 07:57:22;;;;;;;3.27;2.97;;;19.10;42.40;;;;;;4986404;28;20238;-76
2023/12/19 07:59:48;;;;;;;4.33;3.90;;;19.10;42.40;;;;;;4991315;28;20597;-78
2023/12/19 08:02:14;;;;;;;4.80;3.20;;;19.10;42.40;;;;;;4985627;28;20581;-77
2023/12/19 08:04:42;;;;;;;4.40;3.13;;;19.10;42.40;;;;;;4989610;28;20454;-77
2023/12/19 08:07:08;;;;;;;3.17;2.97;;;19.10;42.40;;;;;;4974152;28;20675;-77
2023/12/19 08:09:34;;;;;;;3.37;3.07;;;19.10;42.40;;;;;;4978603;28;20440;-76
2023/12/19 08:11:59;;;;;;;3.03;2.83;;;19.10;42.40;;;;;;4971384;28;20817;-74
2023/12/19 08:14:25;;;;;;;2.80;2.60;;;19.10;42.40;;;;;;4985004;28;20711;-76
2023/12/19 08:16:50;;;;;;;3.43;3.13;;;19.10;42.50;;;;;;4976020;28;20232;-74
2023/12/19 08:19:19;;;;;;;3.53;2.73;;;19.10;42.40;;;;;;4964881;28;20734;-76
2023/12/19 08:21:54;;;;;;;3.47;3.20;;;19.10;42.50;;;;;;4986828;28;20219;-74
2023/12/19 08:24:21;;;;;;;4.53;2.83;;;19.10;42.40;;;;;;4986692;28;20469;-75
2023/12/19 08:26:49;;;;;;;3.13;2.93;;;19.10;42.40;;;;;;4985548;28;20477;-75
2023/12/19 08:29:15;;;;;;;2.97;2.80;;;19.10;42.40;;;;;;4980806;28;20473;-76
2023/12/19 08:31:41;;;;;;;2.30;2.10;;;19.10;42.40;;;;;;4986003;28;21009;-77
2023/12/19 08:34:06;;;;;;;3.23;2.93;;;19.10;42.40;;;;;;4989997;28;20477;-75
2023/12/19 08:36:32;;;;;;;3.17;2.70;;;19.10;42.40;;;;;;4988263;28;20320;-76
2023/12/19 08:38:59;;;;;;;3.20;3.00;;;19.10;42.40;;;;;;4981752;28;20317;-74
2023/12/19 08:41:25;;;;;;;2.33;2.23;;;19.10;42.40;;;;;;4985555;28;20239;-77
2023/12/19 08:43:50;;;;;;;3.13;2.90;;;19.10;42.30;;;;;;4978024;28;20487;-74
2023/12/19 08:46:19;;;;;;;3.07;2.83;;;19.10;42.40;;;;;;4991375;28;20473;-78
2023/12/19 08:48:49;;;;;;;2.63;2.53;;;19.10;42.40;;;;;;4989628;28;20223;-76
2023/12/19 08:51:15;;;;;;;3.67;3.17;;;19.10;42.30;;;;;;4989944;28;20484;-75
2023/12/19 08:53:41;;;;;;;2.40;2.20;;;19.10;42.30;;;;;;4966724;28;20451;-74
2023/12/19 08:56:07;;;;;;;2.80;2.60;;;19.10;42.30;;;;;;4992298;28;20250;-75
2023/12/19 08:58:32;;;;;;;2.30;2.10;;;19.10;42.40;;;;;;4979104;28;20579;-75
2023/12/19 09:00:58;;;;;;;2.47;2.27;;;19.10;42.30;;;;;;4991764;28;20243;-73
2023/12/19 09:03:23;;;;;;;2.40;2.20;;;19.00;42.30;;;;;;4961249;28;20347;-77
2023/12/19 09:05:52;;;;;;;2.70;2.53;;;19.00;42.20;;;;;;4970877;28;20311;-73
2023/12/19 09:08:18;;;;;;;2.83;2.40;;;19.00;42.20;;;;;;4972152;28;20267;-73
2023/12/19 09:10:45;;;;;;;3.23;2.43;;;19.00;42.30;;;;;;4980881;28;20928;-73
2023/12/19 09:13:10;;;;;;;2.27;2.07;;;19.00;42.30;;;;;;4983202;28;20302;-73
2023/12/19 09:15:36;;;;;;;2.23;1.90;;;19.00;42.20;;;;;;4986031;28;20486;-73
2023/12/19 09:18:03;;;;;;;2.90;2.37;;;19.00;42.20;;;;;;4963769;28;20235;-76
2023/12/19 09:20:29;;;;;;;2.57;2.40;;;19.00;42.20;;;;;;4979142;28;20838;-74
2023/12/19 09:22:55;;;;;;;2.07;1.93;;;19.00;42.20;;;;;;4965552;28;20431;-74
2023/12/19 09:25:20;;;;;;;2.60;2.43;;;19.00;42.20;;;;;;4984907;28;20468;-75
2023/12/19 09:27:46;;;;;;;4.90;2.40;;;19.00;42.20;;;;;;4982413;28;22604;-76
2023/12/19 09:30:12;;;;;;;2.27;2.17;;;19.00;42.10;;;;;;4979251;28;20593;-77
2023/12/19 09:32:39;;;;;;;2.47;2.27;;;19.00;42.10;;;;;;4988292;28;20254;-77
2023/12/19 09:35:06;;;;;;;2.50;2.30;;;19.00;42.20;;;;;;4972573;28;20447;-77
2023/12/19 09:37:31;;;;;;;1.97;1.77;;;19.00;42.20;;;;;;4985193;28;23424;-76
2023/12/19 09:39:57;;;;;;;2.67;2.00;;;19.00;42.20;;;;;;4982366;28;20477;-76
2023/12/19 09:42:23;;;;;;;2.30;2.20;;;19.00;42.10;;;;;;4979272;28;20246;-76
2023/12/19 09:44:49;;;;;;;2.67;2.47;;;19.00;42.20;;;;;;4986166;28;20222;-76
2023/12/19 09:47:25;;;;;;;3.40;2.10;;;19.00;42.20;;;;;;4980511;28;20228;-76
2023/12/19 09:49:53;;;;;;;2.10;2.00;;;19.00;42.10;;;;;;4981665;28;20471;-76
2023/12/19 09:52:22;;;;;;;2.27;1.73;;;19.00;42.10;;;;;;4983372;28;20523;-76
2023/12/19 09:54:51;;;;;;;1.80;1.70;;;19.00;42.10;;;;;;4980506;28;20464;-76
2023/12/19 09:57:18;;;;;;;2.13;1.93;;;19.00;42.10;;;;;;4972283;28;20439;-76
2023/12/19 09:59:46;;;;;;;1.80;1.70;;;19.00;42.10;;;;;;4963924;28;20479;-76
2023/12/19 10:02:14;;;;;;;1.73;1.63;;;19.00;42.10;;;;;;4978229;28;20474;-75
2023/12/19 10:04:40;;;;;;;2.63;2.43;;;19.00;42.10;;;;;;4975495;28;20498;-76
2023/12/19 10:07:06;;;;;;;1.70;1.60;;;19.00;42.10;;;;;;4975827;28;20498;-76
2023/12/19 10:09:31;;;;;;;1.70;1.60;;;19.00;42.10;;;;;;4983345;28;20452;-76
2023/12/19 10:12:06;;;;;;;2.00;1.90;;;19.00;42.10;;;;;;4972657;28;20298;-75
2023/12/19 10:14:35;;;;;;;2.27;1.73;;;19.00;42.10;;;;;;4965973;28;20240;-77
2023/12/19 10:17:04;;;;;;;1.63;1.53;;;19.00;42.10;;;;;;4992276;28;20435;-76
2023/12/19 10:19:30;;;;;;;1.83;1.73;;;19.00;42.10;;;;;;4990681;28;20993;-76
2023/12/19 10:22:16;;;;;;;1.80;1.70;;;19.00;42.10;;;;;;4986068;28;20519;-77
2023/12/19 10:24:42;;;;;;;1.80;1.70;;;19.00;42.10;;;;;;4994249;28;20984;-77
2023/12/19 10:27:08;;;;;;;1.70;1.60;;;19.00;42.20;;;;;;4985095;28;20453;-76
2023/12/19 10:29:38;;;;;;;2.00;1.90;;;19.00;42.10;;;;;;4993259;28;20431;-76
2023/12/19 10:32:15;;;;;;;1.73;1.63;;;19.00;42.10;;;;;;4993720;28;20310;-76
2023/12/19 10:34:41;;;;;;;1.67;1.57;;;19.00;42.10;;;;;;4974707;28;20947;-77
2023/12/19 10:37:20;;;;;;;1.60;1.50;;;19.00;42.10;;;;;;4979612;28;20461;-74
2023/12/19 10:39:47;;;;;;;1.63;1.53;;;19.00;42.10;;;;;;4979109;28;20489;-74
2023/12/19 10:42:13;;;;;;;1.77;1.67;;;19.00;42.10;;;;;;4987420;28;20441;-75
2023/12/19 10:44:42;;;;;;;2.70;1.90;;;19.00;42.10;;;;;;4974748;28;20458;-74
2023/12/19 10:47:08;;;;;;;2.13;1.63;;;19.00;42.10;;;;;;4990946;28;20231;-75
2023/12/19 10:49:36;;;;;;;3.37;1.70;;;19.00;42.20;;;;;;5005013;28;22009;-76
2023/12/19 10:52:07;;;;;;;1.83;1.73;;;19.00;42.10;;;;;;4985438;28;20423;-76
2023/12/19 10:54:37;;;;;;;1.60;1.50;;;19.00;42.10;;;;;;4985204;28;20447;-76
2023/12/19 10:57:17;;;;;;;1.50;1.40;;;19.00;42.10;;;;;;4970394;28;20488;-80
2023/12/19 10:59:54;;;;;;;1.73;1.63;;;19.00;42.10;;;;;;4986250;28;20766;-81
2023/12/19 11:02:33;;;;;;;1.63;1.53;;;19.00;42.10;;;;;;4990237;28;20440;-80
2023/12/19 11:05:25;;;;;;;2.00;1.80;;;19.00;42.10;;;;;;4992333;28;20441;-81
2023/12/19 11:07:51;;;;;;;1.60;1.50;;;19.00;42.10;;;;;;4973558;28;20524;-81
2023/12/19 11:10:21;;;;;;;1.50;1.40;;;19.00;42.10;;;;;;4986027;28;20822;-81
2023/12/19 11:12:48;;;;;;;1.50;1.40;;;19.00;42.10;;;;;;4996151;28;20510;-80
2023/12/19 11:15:15;;;;;;;1.50;1.40;;;19.00;42.10;;;;;;4995668;28;21075;-80
2023/12/19 11:17:55;;;;;;;1.93;1.83;;;19.00;42.10;;;;;;4987440;28;20442;-80
2023/12/19 11:20:23;;;;;;;1.43;1.33;;;19.00;42.10;;;;;;4976113;28;20490;-81
2023/12/19 11:23:16;;;;;;;1.33;1.23;;;19.00;42.00;;;;;;4997110;28;20556;-81
2023/12/19 11:25:59;;;;;;;1.40;1.30;;;19.00;42.10;;;;;;4999070;28;20538;-80
2023/12/19 11:28:26;;;;;;;1.50;1.40;;;19.00;42.10;;;;;;4994861;28;20962;-80
2023/12/19 11:30:51;;;;;;;1.30;1.20;;;19.00;42.00;;;;;;4974025;28;20507;-81
2023/12/19 11:33:37;;;;;;;1.50;1.40;;;19.00;42.10;;;;;;4999814;28;20472;-81
2023/12/19 11:36:13;;;;;;;1.40;1.30;;;19.00;42.10;;;;;;4987316;28;20326;-81
2023/12/19 11:38:38;;;;;;;1.53;1.43;;;19.00;42.00;;;;;;4995867;28;21079;-80
2023/12/19 11:41:04;;;;;;;1.53;1.43;;;19.00;42.00;;;;;;4992574;28;20458;-81
2023/12/19 11:43:29;;;;;;;1.47;1.37;;;19.00;42.00;;;;;;4985757;28;20282;-81
2023/12/19 11:46:00;;;;;;;1.30;1.20;;;19.00;42.00;;;;;;4989271;28;20557;-80
2023/12/19 11:48:44;;;;;;;1.60;1.47;;;19.00;42.00;;;;;;4969975;28;20484;-74
2023/12/19 11:51:11;;;;;;;1.73;1.47;;;19.00;41.90;;;;;;4966182;28;21055;-76
2023/12/19 11:53:41;;;;;;;1.33;1.20;;;19.00;42.00;;;;;;4983581;28;20481;-74
2023/12/19 11:56:08;;;;;;;1.50;1.40;;;19.00;42.00;;;;;;4964151;28;20486;-75
2023/12/19 11:58:35;;;;;;;1.50;1.40;;;19.00;42.80;;;;;;4969809;28;21451;-75
2023/12/19 12:01:02;;;;;;;1.37;1.27;;;19.00;42.00;;;;;;4972609;28;20850;-75
2023/12/19 12:03:28;;;;;;;1.30;1.20;;;19.00;42.00;;;;;;4987361;28;20477;-74
2023/12/19 12:05:54;;;;;;;1.50;1.30;;;19.00;42.00;;;;;;4989535;28;20415;-77
2023/12/19 12:08:21;;;;;;;2.00;1.40;;;19.00;42.00;;;;;;4977730;28;20432;-76
2023/12/19 12:11:00;;;;;;;1.40;1.30;;;19.00;42.00;;;;;;4990026;28;20227;-75
2023/12/19 12:13:30;;;;;;;1.40;1.30;;;19.00;42.00;;;;;;4991610;28;20424;-76
2023/12/19 12:15:57;;;;;;;1.27;1.17;;;19.00;42.00;;;;;;4979000;28;20543;-76
2023/12/19 12:18:24;;;;;;;1.30;1.20;;;18.90;41.80;;;;;;4988425;28;20554;-76
2023/12/19 12:20:50;;;;;;;1.37;1.27;;;18.90;41.90;;;;;;4983116;28;20480;-76
2023/12/19 12:23:21;;;;;;;1.73;1.20;;;19.00;42.00;;;;;;4981842;28;20429;-75
2023/12/19 12:25:56;;;;;;;1.30;1.20;;;19.00;42.00;;;;;;4986387;28;20266;-75
2023/12/19 12:28:26;;;;;;;1.37;1.27;;;19.00;42.00;;;;;;4975444;28;20420;-75
2023/12/19 12:31:01;;;;;;;1.30;1.20;;;19.00;42.00;;;;;;4986166;28;20479;-76
2023/12/19 12:33:28;;;;;;;1.43;1.30;;;19.00;42.70;;;;;;4979838;28;20561;-74
2023/12/19 12:35:55;;;;;;;1.17;1.07;;;19.00;42.00;;;;;;4983078;28;20444;-76
2023/12/19 12:38:22;;;;;;;1.83;1.10;;;18.90;41.90;;;;;;4966632;28;21320;-76
2023/12/19 12:40:56;;;;;;;2.90;1.50;;;18.90;41.90;;;;;;4987763;28;20473;-76
2023/12/19 12:43:28;;;;;;;1.17;1.07;;;19.00;41.90;;;;;;4985930;28;20765;-77
2023/12/19 12:46:13;;;;;;;1.20;1.10;;;19.00;41.90;;;;;;4974315;28;21246;-77